createdAt,value
2018-10-17T00:01:32.845Z,14.23
2018-10-17T00:04:01.268Z,15.30
2018-10-17T00:06:29.677Z,16.93
2018-10-17T00:08:58.113Z,17.00
2018-10-17T00:11:26.537Z,15.40
2018-10-17T00:13:54.973Z,16.10
2018-10-17T00:16:23.409Z,16.43
2018-10-17T00:18:51.941Z,17.80
2018-10-17T00:21:20.338Z,18.07
2018-10-17T00:23:48.796Z,17.93
2018-10-17T00:26:17.249Z,17.93
2018-10-17T00:28:45.705Z,14.53
2018-10-17T00:31:14.196Z,15.77
2018-10-17T00:33:42.568Z,15.93
2018-10-17T00:36:11.031Z,18.47
2018-10-17T00:38:39.476Z,16.27
2018-10-17T00:41:07.911Z,17.70
2018-10-17T00:43:36.295Z,19.30
2018-10-17T00:46:04.772Z,20.00
2018-10-17T00:48:33.188Z,17.17
2018-10-17T00:51:01.640Z,16.37
2018-10-17T00:53:30.049Z,18.50
2018-10-17T00:55:58.492Z,20.10
2018-10-17T00:58:26.922Z,18.43
2018-10-17T01:00:55.414Z,13.50
2018-10-17T01:03:23.800Z,21.20
2018-10-17T01:05:52.254Z,24.80
2018-10-17T01:08:20.692Z,14.20
2018-10-17T01:10:49.123Z,15.43
2018-10-17T01:13:17.540Z,16.23
2018-10-17T01:15:45.990Z,19.10
2018-10-17T01:18:14.414Z,16.77
2018-10-17T01:20:42.844Z,21.63
2018-10-17T01:23:11.347Z,15.90
2018-10-17T01:25:39.702Z,17.50
2018-10-17T01:28:08.136Z,16.10
2018-10-17T01:30:37.037Z,15.93
2018-10-17T01:33:05.588Z,17.00
2018-10-17T01:35:34.033Z,14.97
2018-10-17T01:38:02.483Z,18.73
2018-10-17T01:40:30.936Z,15.57
2018-10-17T01:42:59.416Z,16.40
2018-10-17T01:45:27.829Z,16.47
2018-10-17T01:47:56.285Z,18.07
2018-10-17T01:50:24.727Z,16.80
2018-10-17T01:52:53.246Z,20.03
2018-10-17T01:55:21.665Z,17.83
2018-10-17T01:57:50.075Z,17.87
2018-10-17T02:00:18.529Z,18.17
2018-10-17T02:02:47.001Z,17.53
2018-10-17T02:05:15.583Z,16.30
2018-10-17T02:07:43.933Z,19.53
2018-10-17T02:10:12.368Z,18.43
2018-10-17T02:12:40.791Z,19.03
2018-10-17T02:15:09.226Z,23.57
2018-10-17T02:17:37.671Z,18.83
2018-10-17T02:20:06.121Z,17.77
2018-10-17T02:22:34.581Z,16.50
2018-10-17T02:25:03.089Z,18.23
2018-10-17T02:27:31.469Z,18.63
2018-10-17T02:29:59.929Z,20.33
2018-10-17T02:32:28.330Z,19.50
2018-10-17T02:35:02.177Z,17.90
2018-10-17T02:37:30.551Z,22.13
2018-10-17T02:39:59.006Z,15.60
2018-10-17T02:42:27.413Z,15.90
2018-10-17T02:44:55.836Z,13.77
2018-10-17T02:47:24.292Z,16.00
2018-10-17T02:49:52.718Z,17.77
2018-10-17T02:52:21.140Z,21.37
2018-10-17T02:54:49.585Z,18.57
2018-10-17T02:57:18.009Z,15.03
2018-10-17T02:59:46.416Z,19.20
2018-10-17T03:02:14.853Z,14.63
2018-10-17T03:04:43.271Z,15.90
2018-10-17T03:07:11.773Z,17.60
2018-10-17T03:09:40.164Z,16.73
2018-10-17T03:12:08.614Z,15.80
2018-10-17T03:14:37.025Z,18.07
2018-10-17T03:17:05.764Z,15.20
2018-10-17T03:19:34.171Z,14.70
2018-10-17T03:22:02.618Z,14.00
2018-10-17T03:24:31.041Z,15.40
2018-10-17T03:26:59.490Z,13.93
2018-10-17T03:29:27.931Z,16.30
2018-10-17T03:31:56.345Z,14.63
2018-10-17T03:34:24.794Z,15.87
2018-10-17T03:36:53.302Z,15.70
2018-10-17T03:39:21.706Z,19.80
2018-10-17T03:41:50.133Z,18.00
2018-10-17T03:44:18.584Z,16.37
2018-10-17T03:46:47.011Z,24.23
2018-10-17T03:49:15.492Z,18.73
2018-10-17T03:51:43.939Z,18.30
2018-10-17T03:54:12.381Z,14.03
2018-10-17T03:56:40.817Z,16.97
2018-10-17T03:59:09.340Z,12.43
2018-10-17T04:01:37.694Z,17.10
2018-10-17T04:04:06.155Z,15.90
2018-10-17T04:06:34.581Z,15.40
2018-10-17T04:09:03.206Z,15.10
2018-10-17T04:11:31.624Z,12.47
2018-10-17T04:14:00.131Z,15.50
2018-10-17T04:16:28.562Z,29.67
2018-10-17T04:18:57.042Z,15.40
2018-10-17T04:21:25.425Z,16.27
2018-10-17T04:23:53.841Z,16.57
2018-10-17T04:26:22.342Z,17.53
2018-10-17T04:28:50.790Z,15.73
2018-10-17T04:31:19.407Z,15.97
2018-10-17T04:33:47.776Z,19.23
2018-10-17T04:36:16.272Z,18.20
2018-10-17T04:38:44.715Z,14.87
2018-10-17T04:41:13.223Z,17.20
2018-10-17T04:43:41.594Z,20.00
2018-10-17T04:46:10.026Z,21.83
2018-10-17T04:48:38.455Z,18.40
2018-10-17T04:51:06.891Z,17.37
2018-10-17T04:53:35.343Z,18.27
2018-10-17T04:56:03.865Z,18.07
2018-10-17T04:58:32.322Z,23.20
2018-10-17T05:01:00.867Z,18.40
2018-10-17T05:03:29.217Z,20.63
2018-10-17T05:05:57.657Z,20.17
2018-10-17T05:08:26.089Z,19.23
2018-10-17T05:10:54.542Z,14.70
2018-10-17T05:13:23.005Z,18.93
2018-10-17T05:15:51.421Z,17.43
2018-10-17T05:18:19.907Z,19.60
2018-10-17T05:20:48.353Z,24.27
2018-10-17T05:23:16.788Z,20.50
2018-10-17T05:25:45.275Z,22.33
2018-10-17T05:28:13.765Z,23.77
2018-10-17T05:30:42.204Z,17.63
2018-10-17T05:33:10.646Z,24.10
2018-10-17T05:35:39.109Z,16.43
2018-10-17T05:38:07.616Z,18.37
2018-10-17T05:40:36.040Z,20.57
2018-10-17T05:43:04.558Z,23.20
2018-10-17T05:45:33.008Z,17.20
2018-10-17T05:48:01.517Z,20.97
2018-10-17T05:50:29.943Z,17.20
2018-10-17T05:52:58.387Z,21.50
2018-10-17T05:55:26.863Z,19.73
2018-10-17T05:57:55.553Z,15.73
2018-10-17T06:00:23.986Z,19.50
2018-10-17T06:02:52.451Z,20.53
2018-10-17T06:05:20.879Z,23.17
2018-10-17T06:07:52.326Z,16.50
2018-10-17T06:10:20.817Z,19.17
2018-10-17T06:12:49.198Z,18.23
2018-10-17T06:15:17.637Z,20.13
2018-10-17T06:17:46.256Z,17.37
2018-10-17T06:20:14.797Z,20.07
2018-10-17T06:22:43.379Z,17.60
2018-10-17T06:25:11.960Z,20.70
2018-10-17T06:27:40.491Z,23.67
2018-10-17T06:30:10.207Z,24.73
2018-10-17T06:32:39.115Z,20.73
2018-10-17T06:35:08.134Z,25.27
2018-10-17T06:37:37.164Z,27.87
2018-10-17T06:40:06.511Z,22.77
2018-10-17T06:42:35.108Z,22.27
2018-10-17T06:45:04.679Z,27.30
2018-10-17T06:47:33.958Z,20.77
2018-10-17T06:50:02.548Z,20.87
2018-10-17T06:52:31.042Z,24.20
2018-10-17T06:54:59.717Z,18.77
2018-10-17T06:57:28.263Z,18.20
2018-10-17T06:59:56.780Z,24.23
2018-10-17T07:02:25.469Z,26.20
2018-10-17T07:04:53.850Z,20.67
2018-10-17T07:07:22.408Z,28.03
2018-10-17T07:09:50.929Z,24.50
2018-10-17T07:12:20.002Z,21.80
2018-10-17T07:14:48.541Z,18.97
2018-10-17T07:17:17.172Z,21.77
2018-10-17T07:19:45.637Z,24.33
2018-10-17T07:22:14.148Z,24.50
2018-10-17T07:24:42.681Z,28.90
2018-10-17T07:27:11.195Z,23.40
2018-10-17T07:29:39.876Z,25.10
2018-10-17T07:32:08.258Z,23.83
2018-10-17T07:34:36.799Z,24.53
2018-10-17T07:37:05.627Z,24.60
2018-10-17T07:39:34.227Z,27.50
2018-10-17T07:42:02.866Z,24.37
2018-10-17T07:44:31.416Z,21.17
2018-10-17T07:46:59.916Z,30.83
2018-10-17T07:49:28.413Z,23.53
2018-10-17T07:51:56.987Z,22.53
2018-10-17T07:54:25.488Z,28.47
2018-10-17T07:56:54.024Z,23.50
2018-10-17T07:59:22.646Z,31.20
2018-10-17T08:01:51.684Z,31.93
2018-10-17T08:04:20.267Z,29.03
2018-10-17T08:06:48.931Z,25.97
2018-10-17T08:09:17.388Z,26.67
2018-10-17T08:11:46.527Z,33.13
2018-10-17T08:14:15.426Z,26.90
2018-10-17T08:16:44.195Z,24.97
2018-10-17T08:19:12.790Z,29.43
2018-10-17T08:21:41.436Z,27.43
2018-10-17T08:24:11.247Z,24.30
2018-10-17T08:26:39.689Z,27.47
2018-10-17T08:29:08.348Z,28.70
2018-10-17T08:31:37.000Z,28.00
2018-10-17T08:34:05.594Z,24.20
2018-10-17T08:36:35.155Z,30.80
2018-10-17T08:39:05.593Z,31.10
2018-10-17T08:41:34.205Z,31.87
2018-10-17T08:44:02.898Z,27.93
2018-10-17T08:46:31.400Z,30.27
2018-10-17T08:49:01.143Z,26.30
2018-10-17T08:51:29.787Z,25.97
2018-10-17T08:53:59.266Z,25.17
2018-10-17T08:56:27.877Z,32.70
2018-10-17T08:58:57.072Z,24.07
2018-10-17T09:01:25.637Z,28.63
2018-10-17T09:03:55.638Z,25.20
2018-10-17T09:06:24.176Z,35.47
2018-10-17T09:08:52.811Z,32.33
2018-10-17T09:11:21.436Z,26.60
2018-10-17T09:13:49.959Z,25.17
2018-10-17T09:16:18.633Z,24.63
2018-10-17T09:18:47.523Z,25.83
2018-10-17T09:21:16.968Z,26.53
2018-10-17T09:23:45.208Z,26.33
2018-10-17T09:26:13.716Z,34.47
2018-10-17T09:28:42.223Z,34.87
2018-10-17T09:31:10.834Z,23.23
2018-10-17T09:33:39.455Z,24.33
2018-10-17T09:36:08.016Z,23.87
2018-10-17T09:38:36.591Z,24.50
2018-10-17T09:41:05.595Z,20.27
2018-10-17T09:43:34.362Z,25.70
2018-10-17T09:46:03.545Z,23.33
2018-10-17T09:48:32.809Z,24.43
2018-10-17T09:51:01.384Z,29.30
2018-10-17T09:53:30.269Z,30.10
2018-10-17T09:55:59.370Z,27.50
2018-10-17T09:58:27.871Z,24.87
2018-10-17T10:01:01.834Z,25.03
2018-10-17T10:03:31.275Z,25.00
2018-10-17T10:05:59.967Z,24.43
2018-10-17T10:08:28.464Z,24.27
2018-10-17T10:10:57.148Z,27.33
2018-10-17T10:13:26.536Z,26.03
2018-10-17T10:15:55.924Z,26.37
2018-10-17T10:18:24.596Z,33.63
2018-10-17T10:20:53.323Z,30.00
2018-10-17T10:23:22.265Z,31.10
2018-10-17T10:25:51.044Z,28.53
2018-10-17T10:28:19.686Z,32.17
2018-10-17T10:30:48.403Z,27.37
2018-10-17T10:33:17.760Z,29.97
2018-10-17T10:35:46.259Z,36.37
2018-10-17T10:38:16.436Z,30.93
2018-10-17T10:40:45.535Z,31.30
2018-10-17T10:43:14.087Z,32.53
2018-10-17T10:45:44.309Z,29.70
2018-10-17T10:48:12.933Z,31.17
2018-10-17T10:50:42.473Z,27.53
2018-10-17T10:53:11.255Z,26.87
2018-10-17T10:55:46.551Z,30.67
2018-10-17T10:58:15.531Z,34.47
2018-10-17T11:00:43.964Z,32.63
2018-10-17T11:03:12.533Z,32.67
2018-10-17T11:05:41.137Z,32.13
2018-10-17T11:08:09.613Z,28.30
2018-10-17T11:10:38.197Z,27.87
2018-10-17T11:13:07.839Z,28.40
2018-10-17T11:15:36.441Z,30.67
2018-10-17T11:18:05.198Z,45.07
2018-10-17T11:20:33.704Z,33.83
2018-10-17T11:23:02.444Z,33.33
2018-10-17T11:25:31.083Z,35.80
2018-10-17T11:27:59.932Z,38.87
2018-10-17T11:30:28.452Z,30.17
2018-10-17T11:32:56.993Z,32.83
2018-10-17T11:35:25.530Z,25.07
2018-10-17T11:37:56.187Z,29.43
2018-10-17T11:40:24.695Z,29.03
2018-10-17T11:42:53.189Z,26.23
2018-10-17T11:45:21.814Z,31.60
2018-10-17T11:47:50.423Z,31.60
2018-10-17T11:50:18.901Z,25.13
2018-10-17T11:52:47.390Z,26.13
2018-10-17T11:55:15.903Z,31.10
2018-10-17T11:57:44.863Z,24.70
2018-10-17T12:00:14.137Z,30.00
2018-10-17T12:02:42.701Z,28.93
2018-10-17T12:05:13.705Z,26.30
2018-10-17T12:07:42.325Z,32.97
2018-10-17T12:10:11.639Z,26.60
2018-10-17T12:12:40.170Z,28.20
2018-10-17T12:15:12.717Z,25.23
2018-10-17T12:17:42.293Z,31.57
2018-10-17T12:20:14.668Z,30.73
2018-10-17T12:22:44.285Z,26.17
2018-10-17T12:25:13.456Z,30.93
2018-10-17T12:27:43.048Z,24.33
2018-10-17T12:30:13.292Z,26.40
2018-10-17T12:32:42.016Z,26.83
2018-10-17T12:35:10.912Z,33.50
2018-10-17T12:37:39.402Z,29.87
2018-10-17T12:40:09.541Z,27.67
2018-10-17T12:42:38.077Z,27.73
2018-10-17T12:45:07.783Z,31.80
2018-10-17T12:47:36.439Z,26.90
2018-10-17T12:50:05.772Z,28.60
2018-10-17T12:52:34.774Z,33.77
2018-10-17T12:55:03.450Z,35.77
2018-10-17T12:57:31.959Z,32.63
2018-10-17T13:00:00.816Z,25.03
2018-10-17T13:02:29.382Z,28.60
2018-10-17T13:04:57.930Z,38.70
2018-10-17T13:07:26.443Z,26.60
2018-10-17T13:09:55.041Z,24.10
2018-10-17T13:12:23.553Z,28.30
2018-10-17T13:14:52.241Z,30.30
2018-10-17T13:17:21.578Z,33.20
2018-10-17T13:19:50.112Z,22.90
2018-10-17T13:22:18.613Z,28.63
2018-10-17T13:24:47.430Z,32.23
2018-10-17T13:27:15.973Z,30.90
2018-10-17T13:29:44.481Z,30.97
2018-10-17T13:32:13.007Z,32.00
2018-10-17T13:34:41.690Z,27.97
2018-10-17T13:37:10.563Z,26.10
2018-10-17T13:39:38.999Z,27.90
2018-10-17T13:42:07.587Z,28.10
2018-10-17T13:44:36.087Z,33.60
2018-10-17T13:47:06.925Z,31.40
2018-10-17T13:49:36.301Z,33.33
2018-10-17T13:52:04.875Z,26.60
2018-10-17T13:54:33.986Z,29.10
2018-10-17T13:57:03.469Z,43.90
2018-10-17T13:59:32.028Z,29.77
2018-10-17T14:02:00.688Z,30.07
2018-10-17T14:04:30.138Z,37.60
2018-10-17T14:06:59.612Z,39.97
2018-10-17T14:09:29.123Z,37.30
2018-10-17T14:11:58.722Z,33.07
2018-10-17T14:14:27.473Z,32.00
2018-10-17T14:16:56.256Z,40.40
2018-10-17T14:19:25.610Z,36.83
2018-10-17T14:21:54.135Z,45.63
2018-10-17T14:24:22.661Z,39.57
2018-10-17T14:26:52.009Z,45.10
2018-10-17T14:29:20.556Z,56.63
2018-10-17T14:31:49.168Z,44.50
2018-10-17T14:34:17.787Z,51.50
2018-10-17T14:36:46.643Z,54.50
2018-10-17T14:39:16.123Z,53.10
2018-10-17T14:41:44.984Z,51.47
2018-10-17T14:44:13.525Z,53.57
2018-10-17T14:46:42.124Z,52.73
2018-10-17T14:49:11.612Z,57.33
2018-10-17T14:51:40.860Z,58.23
2018-10-17T14:54:09.938Z,51.83
2018-10-17T14:56:38.512Z,53.50
2018-10-17T14:59:07.248Z,60.13
2018-10-17T15:01:36.791Z,54.40
2018-10-17T15:04:05.487Z,60.43
2018-10-17T15:06:34.813Z,59.87
2018-10-17T15:09:04.301Z,57.50
2018-10-17T15:11:33.044Z,55.10
2018-10-17T15:14:01.523Z,58.83
2018-10-17T15:16:30.112Z,50.63
2018-10-17T15:18:58.653Z,55.57
2018-10-17T15:21:27.773Z,52.83
2018-10-17T15:23:56.630Z,56.20
2018-10-17T15:26:25.627Z,50.17
2018-10-17T15:28:54.252Z,48.57
2018-10-17T15:31:22.852Z,44.77
2018-10-17T15:33:51.392Z,46.77
2018-10-17T15:36:20.033Z,49.37
2018-10-17T15:38:48.462Z,44.80
2018-10-17T15:41:16.968Z,46.93
2018-10-17T15:43:45.875Z,50.83
2018-10-17T15:46:14.343Z,45.50
2018-10-17T15:48:42.943Z,55.57
2018-10-17T15:51:11.581Z,48.17
2018-10-17T15:53:40.204Z,42.87
2018-10-17T15:56:08.657Z,49.87
2018-10-17T15:58:37.232Z,47.33
2018-10-17T16:01:05.959Z,53.33
2018-10-17T16:03:34.474Z,58.93
2018-10-17T16:06:03.115Z,50.80
2018-10-17T16:08:31.718Z,52.17
2018-10-17T16:11:00.237Z,58.40
2018-10-17T16:13:28.792Z,60.33
2018-10-17T16:15:57.324Z,52.83
2018-10-17T16:18:25.847Z,51.60
2018-10-17T16:20:54.464Z,60.30
2018-10-17T16:23:23.945Z,50.83
2018-10-17T16:25:52.552Z,57.60
2018-10-17T16:28:21.016Z,57.60
2018-10-17T16:30:51.732Z,56.17
2018-10-17T16:33:20.269Z,52.73
2018-10-17T16:35:48.812Z,57.47
2018-10-17T16:38:17.927Z,52.03
2018-10-17T16:40:46.427Z,50.10
2018-10-17T16:43:15.027Z,50.03
2018-10-17T16:45:43.536Z,47.20
2018-10-17T16:48:12.408Z,50.70
2018-10-17T16:50:41.012Z,44.03
2018-10-17T16:53:09.457Z,48.20
2018-10-17T16:55:38.181Z,57.57
2018-10-17T16:58:06.782Z,48.17
2018-10-17T17:00:36.291Z,59.43
2018-10-17T17:03:05.071Z,51.13
2018-10-17T17:05:33.640Z,52.13
2018-10-17T17:08:02.180Z,56.23
2018-10-17T17:10:30.704Z,51.67
2018-10-17T17:12:59.320Z,48.33
2018-10-17T17:15:27.855Z,44.10
2018-10-17T17:17:57.065Z,46.63
2018-10-17T17:20:25.566Z,48.50
2018-10-17T17:22:54.804Z,51.87
2018-10-17T17:25:24.246Z,48.70
2018-10-17T17:27:52.869Z,46.33
2018-10-17T17:30:21.464Z,50.03
2018-10-17T17:32:51.256Z,49.00
2018-10-17T17:37:48.479Z,50.50
2018-10-17T17:40:17.390Z,44.97
2018-10-17T17:42:45.907Z,49.03
2018-10-17T17:45:14.539Z,48.37
2018-10-17T17:47:43.097Z,50.07
2018-10-17T17:50:11.754Z,48.37
2018-10-17T17:52:40.549Z,47.73
2018-10-17T17:55:10.180Z,51.57
2018-10-17T17:57:39.208Z,52.37
2018-10-17T18:00:08.317Z,47.70
